Hlavní strana
METAR-TAF:

METAR-TAF

Letiště :

Tanegashima, Japonsko

zeměpisná šířka: 30-33N, zeměpisná délka: 130-57E, výška: 92 m

Aktuální stav počasí

Zpráva byla vytvořena před 30 minutami, v 09:00 UTC
Západní vítr 3 kt
Teplota 13°C
Vlhkost vzduchu 62%
Tlak 1024 hPa
Viditelnost 10 km a více
Skoro jasno ve výšce 5000 ft
Oblačno až skoro zataženo

METAR: RJFG 240900Z 26003KT 9999 FEW050 BKN/// 13/06 Q1024

Čas: 18:30 (09:30 UTC)


TAF: chybějící

Stav a předpovědi počasí z více než 4 000 letišť (zprávy METAR a TAF).

Červené a žluté tečky na mapě představují dostupné meteorologické stanice.

Když kurzor umístíte na tečku, zobrazí se název stanice.

Pak kliknutím zobrazíte stav a předpověď počasí.

Chcete-li změnit mapu, kliknutím na zelené tlačítko se znaménkem +mapu přiblížíte, kliknutím na zelené tlačítko se znaménkem – mapu oddálíte a kliknutím na zelené šipky přejdete na sousední mapy.


METAR-TAF: